createdAt,value
2018-06-24T00:00:57.570Z,11.20
2018-06-24T00:03:26.210Z,11.20
2018-06-24T00:05:54.860Z,11.10
2018-06-24T00:08:23.527Z,11.10
2018-06-24T00:10:52.180Z,10.90
2018-06-24T00:13:20.797Z,10.90
2018-06-24T00:15:49.482Z,10.80
2018-06-24T00:18:18.140Z,10.80
2018-06-24T00:20:46.712Z,10.80
2018-06-24T00:23:15.341Z,10.70
2018-06-24T00:25:44.007Z,10.60
2018-06-24T00:28:12.729Z,10.70
2018-06-24T00:30:41.348Z,10.70
2018-06-24T00:33:09.952Z,10.80
2018-06-24T00:35:38.516Z,10.80
2018-06-24T00:38:07.145Z,11.00
2018-06-24T00:40:35.774Z,11.20
2018-06-24T00:43:04.350Z,11.30
2018-06-24T00:45:32.958Z,11.40
2018-06-24T00:48:01.565Z,11.50
2018-06-24T00:50:30.225Z,11.60
2018-06-24T00:52:58.792Z,11.50
2018-06-24T00:55:27.440Z,11.30
2018-06-24T00:57:56.145Z,11.20
2018-06-24T01:00:24.886Z,11.00
2018-06-24T01:02:53.494Z,11.10
2018-06-24T01:05:22.154Z,11.20
2018-06-24T01:07:50.767Z,11.20
2018-06-24T01:10:19.421Z,11.20
2018-06-24T01:12:48.017Z,11.20
2018-06-24T01:15:16.760Z,11.20
2018-06-24T01:17:45.360Z,11.00
2018-06-24T01:20:14.188Z,10.90
2018-06-24T01:22:42.764Z,10.90
2018-06-24T01:25:11.907Z,11.00
2018-06-24T01:27:40.502Z,11.00
2018-06-24T01:30:09.163Z,11.00
2018-06-24T01:32:37.790Z,11.00
2018-06-24T01:35:06.435Z,10.80
2018-06-24T01:37:35.021Z,10.70
2018-06-24T01:40:03.686Z,10.70
2018-06-24T01:42:32.244Z,10.60
2018-06-24T01:45:00.891Z,10.50
2018-06-24T01:47:29.468Z,10.40
2018-06-24T01:49:58.071Z,10.30
2018-06-24T01:52:26.666Z,10.20
2018-06-24T01:54:55.301Z,10.10
2018-06-24T01:57:23.926Z,10.10
2018-06-24T01:59:52.493Z,10.00
2018-06-24T02:02:21.114Z,9.90
2018-06-24T02:04:49.710Z,10.00
2018-06-24T02:07:18.387Z,10.00
2018-06-24T02:09:46.993Z,10.00
2018-06-24T02:12:15.590Z,10.00
2018-06-24T02:14:44.142Z,9.90
2018-06-24T02:17:12.738Z,9.90
2018-06-24T02:19:41.292Z,9.90
2018-06-24T02:22:09.885Z,9.90
2018-06-24T02:24:38.464Z,9.90
2018-06-24T02:27:07.047Z,9.90
2018-06-24T02:29:35.588Z,9.90
2018-06-24T02:32:04.220Z,10.10
2018-06-24T02:37:01.100Z,10.10
2018-06-24T02:39:29.928Z,10.10
2018-06-24T02:41:58.584Z,10.10
2018-06-24T02:44:27.137Z,10.00
2018-06-24T02:46:55.760Z,10.00
2018-06-24T02:49:24.301Z,10.00
2018-06-24T02:51:52.930Z,10.00
2018-06-24T02:54:21.570Z,10.10
2018-06-24T02:56:50.202Z,10.10
2018-06-24T02:59:18.805Z,10.30
2018-06-24T03:01:47.393Z,10.20
2018-06-24T03:04:16.016Z,10.10
2018-06-24T03:06:44.658Z,10.10
2018-06-24T03:09:13.288Z,10.00
2018-06-24T03:11:42.040Z,10.10
2018-06-24T03:14:10.661Z,10.10
2018-06-24T03:16:39.245Z,10.10
2018-06-24T03:19:07.873Z,10.00
2018-06-24T03:21:36.445Z,10.10
2018-06-24T03:24:05.005Z,10.10
2018-06-24T03:26:33.590Z,10.10
2018-06-24T03:29:02.212Z,10.10
2018-06-24T03:31:30.868Z,10.10
2018-06-24T03:33:59.560Z,10.10
2018-06-24T03:36:28.212Z,10.20
2018-06-24T03:38:56.820Z,10.20
2018-06-24T03:41:25.455Z,10.30
2018-06-24T03:43:54.088Z,10.40
2018-06-24T03:46:22.642Z,10.40
2018-06-24T03:48:51.249Z,10.40
2018-06-24T03:53:48.048Z,10.50
2018-06-24T03:56:16.624Z,10.50
2018-06-24T03:58:45.203Z,10.50
2018-06-24T04:01:13.780Z,10.50
2018-06-24T04:03:42.421Z,10.50
2018-06-24T04:06:11.017Z,10.60
2018-06-24T04:08:39.673Z,10.60
2018-06-24T04:11:08.363Z,10.60
2018-06-24T04:13:36.993Z,10.70
2018-06-24T04:16:07.477Z,10.70
2018-06-24T04:18:44.308Z,10.70
2018-06-24T04:21:14.116Z,10.80
2018-06-24T04:23:44.069Z,11.00
2018-06-24T04:26:12.753Z,11.00
2018-06-24T04:28:41.718Z,10.90
2018-06-24T04:31:11.491Z,10.90
2018-06-24T04:33:40.529Z,10.90
2018-06-24T04:36:09.180Z,11.00
2018-06-24T04:38:37.822Z,11.10
2018-06-24T04:41:06.401Z,11.40
2018-06-24T04:43:35.008Z,11.40
2018-06-24T04:46:03.620Z,11.40
2018-06-24T04:48:32.264Z,11.30
2018-06-24T04:51:00.861Z,11.20
2018-06-24T04:53:29.454Z,11.20
2018-06-24T04:55:58.084Z,11.40
2018-06-24T04:58:26.694Z,11.50
2018-06-24T05:00:55.356Z,11.40
2018-06-24T05:03:24.019Z,11.70
2018-06-24T05:05:52.675Z,11.90
2018-06-24T05:08:27.050Z,12.00
2018-06-24T05:10:55.721Z,12.10
2018-06-24T05:13:24.305Z,12.40
2018-06-24T05:15:52.905Z,12.30
2018-06-24T05:18:21.498Z,12.70
2018-06-24T05:20:50.074Z,12.30
2018-06-24T05:23:18.636Z,12.00
2018-06-24T05:25:47.304Z,12.00
2018-06-24T05:28:15.914Z,12.20
2018-06-24T05:30:44.544Z,12.20
2018-06-24T05:33:13.228Z,12.30
2018-06-24T05:35:41.862Z,12.40
2018-06-24T05:38:10.470Z,12.40
2018-06-24T05:40:39.061Z,12.50
2018-06-24T05:43:07.761Z,12.80
2018-06-24T05:45:36.407Z,12.90
2018-06-24T05:48:05.737Z,13.00
2018-06-24T05:50:37.249Z,13.20
2018-06-24T05:53:05.921Z,13.00
2018-06-24T05:55:34.590Z,12.80
2018-06-24T05:58:03.271Z,12.90
2018-06-24T06:00:31.845Z,13.30
2018-06-24T06:03:00.514Z,13.00
2018-06-24T06:07:57.448Z,13.50
2018-06-24T06:10:26.211Z,13.70
2018-06-24T06:12:54.739Z,14.10
2018-06-24T06:15:23.325Z,13.90
2018-06-24T06:17:52.000Z,13.80
2018-06-24T06:20:20.737Z,13.70
2018-06-24T06:22:49.454Z,14.30
2018-06-24T06:25:18.154Z,14.40
2018-06-24T06:27:46.818Z,14.50
2018-06-24T06:30:15.436Z,15.00
2018-06-24T06:53:35.217Z,15.70
2018-06-24T06:56:03.769Z,15.90
2018-06-24T06:58:32.351Z,16.00
2018-06-24T07:01:01.001Z,15.60
2018-06-24T07:03:43.850Z,15.60
2018-06-24T07:06:12.439Z,15.60
2018-06-24T07:08:42.120Z,16.40
2018-06-24T07:11:10.835Z,16.60
2018-06-24T07:13:39.427Z,16.80
2018-06-24T07:16:07.987Z,16.20
2018-06-24T07:18:36.599Z,15.80
2018-06-24T07:21:05.281Z,15.60
2018-06-24T07:23:33.891Z,15.60
2018-06-24T07:26:02.485Z,15.80
2018-06-24T07:28:31.084Z,15.80
2018-06-24T07:30:59.641Z,16.30
2018-06-24T07:33:28.239Z,16.60
2018-06-24T07:35:56.858Z,16.70
2018-06-24T07:38:25.509Z,17.00
2018-06-24T07:40:54.498Z,16.90
2018-06-24T07:43:23.132Z,16.60
2018-06-24T07:45:51.745Z,17.00
2018-06-24T07:48:20.400Z,17.20
2018-06-24T07:50:49.012Z,17.20
2018-06-24T07:53:17.682Z,18.10
2018-06-24T07:55:46.294Z,18.30
2018-06-24T07:58:14.889Z,18.00
2018-06-24T08:00:43.540Z,18.00
2018-06-24T08:03:12.195Z,17.50
2018-06-24T08:05:40.858Z,17.70
2018-06-24T08:08:09.572Z,17.70
2018-06-24T08:10:38.223Z,17.70
2018-06-24T08:13:06.815Z,18.20
2018-06-24T08:15:35.416Z,18.30
2018-06-24T08:18:04.000Z,18.70
2018-06-24T08:20:32.605Z,18.80
2018-06-24T08:23:01.197Z,18.70
2018-06-24T08:25:29.793Z,18.50
2018-06-24T08:27:58.387Z,18.70
2018-06-24T08:30:27.008Z,19.20
2018-06-24T08:32:55.587Z,19.40
2018-06-24T08:35:24.234Z,19.60
2018-06-24T08:37:52.808Z,19.90
2018-06-24T08:40:21.377Z,19.90
2018-06-24T08:42:49.927Z,20.20
2018-06-24T08:45:18.500Z,21.10
2018-06-24T08:47:47.102Z,21.30
2018-06-24T08:50:15.704Z,21.30
2018-06-24T08:52:44.272Z,20.70
2018-06-24T08:55:12.856Z,21.30
2018-06-24T08:57:41.422Z,22.10
2018-06-24T09:00:10.056Z,21.50
2018-06-24T09:02:38.646Z,20.90
2018-06-24T09:05:07.312Z,20.40
2018-06-24T09:07:35.899Z,20.40
2018-06-24T09:10:04.552Z,20.00
2018-06-24T09:12:33.184Z,19.10
2018-06-24T09:15:01.786Z,19.30
2018-06-24T09:17:30.424Z,19.10
2018-06-24T09:19:58.993Z,19.30
2018-06-24T09:22:27.623Z,19.70
2018-06-24T09:24:56.218Z,20.30
2018-06-24T09:27:25.284Z,20.30
2018-06-24T09:29:53.912Z,21.60
2018-06-24T09:32:22.524Z,21.50
2018-06-24T09:34:51.154Z,22.40
2018-06-24T09:37:20.456Z,22.40
2018-06-24T09:39:49.452Z,22.20
2018-06-24T09:42:18.084Z,22.50
2018-06-24T09:44:46.650Z,21.20
2018-06-24T09:47:15.353Z,21.30
2018-06-24T09:49:43.956Z,21.30
2018-06-24T09:52:12.569Z,20.80
2018-06-24T09:54:41.259Z,21.40
2018-06-24T09:57:09.883Z,21.40
2018-06-24T09:59:38.473Z,21.70
2018-06-24T10:02:07.106Z,21.00
2018-06-24T10:04:36.188Z,20.90
2018-06-24T10:07:04.775Z,21.40
2018-06-24T10:09:33.421Z,21.70
2018-06-24T10:12:02.059Z,21.60
2018-06-24T10:14:30.663Z,20.70
2018-06-24T10:16:59.282Z,20.40
2018-06-24T10:19:27.915Z,21.10
2018-06-24T10:21:56.546Z,21.20
2018-06-24T10:24:25.157Z,22.20
2018-06-24T10:26:53.770Z,21.90
2018-06-24T10:29:22.411Z,21.10
2018-06-24T10:31:50.997Z,21.40
2018-06-24T10:34:19.585Z,21.30
2018-06-24T10:36:48.285Z,21.30
2018-06-24T10:39:16.971Z,21.80
2018-06-24T10:41:45.634Z,22.30
2018-06-24T10:44:14.232Z,21.60
2018-06-24T10:46:42.872Z,21.70
2018-06-24T10:49:11.472Z,21.30
2018-06-24T10:51:40.049Z,21.80
2018-06-24T10:54:08.604Z,21.90
2018-06-24T10:56:37.265Z,21.70
2018-06-24T10:59:05.905Z,21.60
2018-06-24T11:01:34.522Z,21.50
2018-06-24T11:04:03.186Z,20.40
2018-06-24T11:06:31.834Z,20.00
2018-06-24T11:09:00.521Z,19.80
2018-06-24T11:11:29.146Z,19.40
2018-06-24T11:13:57.776Z,19.70
2018-06-24T11:16:26.421Z,19.70
2018-06-24T11:21:23.295Z,19.90
2018-06-24T11:23:51.906Z,19.30
2018-06-24T11:26:20.481Z,19.80
2018-06-24T11:28:49.089Z,20.00
2018-06-24T11:31:17.657Z,20.00
2018-06-24T11:36:14.476Z,20.30
2018-06-24T11:38:43.095Z,20.60
2018-06-24T11:41:11.723Z,20.80
2018-06-24T11:43:40.408Z,21.10
2018-06-24T11:46:08.969Z,21.70
2018-06-24T11:48:37.606Z,21.80
2018-06-24T11:51:06.211Z,22.40
2018-06-24T11:53:34.852Z,22.60
2018-06-24T11:56:03.495Z,21.50
2018-06-24T11:58:32.097Z,21.90
2018-06-24T12:01:00.798Z,22.00
2018-06-24T12:03:29.480Z,22.40
2018-06-24T12:05:58.116Z,21.20
2018-06-24T12:08:26.997Z,21.60
2018-06-24T12:10:55.744Z,21.30
2018-06-24T12:13:24.317Z,21.30
2018-06-24T12:15:53.041Z,21.70
2018-06-24T12:18:21.725Z,21.00
2018-06-24T12:20:50.373Z,21.00
2018-06-24T12:23:19.575Z,21.40
2018-06-24T12:25:48.276Z,21.10
2018-06-24T12:28:16.836Z,21.60
2018-06-24T12:30:45.757Z,21.90
2018-06-24T12:33:14.381Z,21.80
2018-06-24T12:35:42.984Z,22.50
2018-06-24T12:38:11.683Z,22.60
2018-06-24T12:40:40.250Z,22.20
2018-06-24T12:43:10.093Z,22.30
2018-06-24T12:45:38.677Z,22.60
2018-06-24T12:48:08.009Z,22.50
2018-06-24T12:50:36.631Z,22.20
2018-06-24T12:53:05.337Z,22.50
2018-06-24T12:55:33.930Z,22.50
2018-06-24T12:58:02.510Z,22.90
2018-06-24T13:00:31.734Z,22.80
2018-06-24T13:02:59.771Z,22.40
2018-06-24T13:05:28.425Z,23.00
2018-06-24T13:07:57.024Z,23.10
2018-06-24T13:10:25.703Z,22.20
2018-06-24T13:12:54.369Z,22.00
2018-06-24T13:15:22.966Z,22.30
2018-06-24T13:17:51.665Z,22.40
2018-06-24T13:25:16.862Z,22.10
2018-06-24T13:27:45.517Z,22.20
2018-06-24T13:30:14.142Z,22.40
2018-06-24T13:32:42.799Z,22.10
2018-06-24T13:35:11.424Z,22.10
2018-06-24T13:37:40.056Z,22.20
2018-06-24T13:40:08.748Z,22.20
2018-06-24T13:42:37.426Z,22.30
2018-06-24T13:45:07.923Z,21.80
2018-06-24T13:47:36.594Z,22.20
2018-06-24T13:50:05.383Z,22.70
2018-06-24T13:52:33.980Z,22.90
2018-06-24T13:55:02.649Z,22.80
2018-06-24T13:57:31.974Z,23.00
2018-06-24T14:00:00.596Z,23.30
2018-06-24T14:02:29.194Z,23.60
2018-06-24T14:04:57.918Z,23.50
2018-06-24T14:07:26.544Z,23.00
2018-06-24T14:09:55.162Z,23.00
2018-06-24T14:12:23.768Z,23.20
2018-06-24T14:14:52.415Z,22.60
2018-06-24T14:17:21.056Z,22.50
2018-06-24T14:19:49.711Z,22.50
2018-06-24T14:22:18.304Z,23.00
2018-06-24T14:24:46.904Z,23.00
2018-06-24T14:27:15.496Z,23.40
2018-06-24T14:29:44.128Z,23.60
2018-06-24T14:32:12.724Z,23.90
2018-06-24T14:34:41.351Z,24.10
2018-06-24T14:37:09.986Z,23.90
2018-06-24T14:39:38.660Z,23.90
2018-06-24T14:42:07.269Z,23.80
2018-06-24T14:44:35.937Z,23.90
2018-06-24T14:47:04.647Z,23.80
2018-06-24T14:49:33.289Z,23.40
2018-06-24T14:52:02.021Z,22.90
2018-06-24T14:54:30.682Z,22.90
2018-06-24T14:56:59.338Z,22.50
2018-06-24T14:59:27.990Z,22.50
2018-06-24T15:01:56.621Z,22.90
2018-06-24T15:04:25.234Z,23.20
2018-06-24T15:06:53.934Z,22.80
2018-06-24T15:09:22.590Z,22.60
2018-06-24T15:11:51.221Z,22.50
2018-06-24T15:14:19.861Z,22.60
2018-06-24T15:16:48.532Z,22.50
2018-06-24T15:19:17.180Z,22.60
2018-06-24T15:21:45.892Z,22.90
2018-06-24T15:24:14.533Z,23.20
2018-06-24T15:26:43.259Z,23.10
2018-06-24T15:29:11.909Z,23.20
2018-06-24T15:31:40.608Z,23.00
2018-06-24T15:34:09.254Z,22.90
2018-06-24T15:36:37.920Z,22.80
2018-06-24T15:39:09.057Z,22.50
2018-06-24T15:41:38.236Z,22.60
2018-06-24T15:44:07.425Z,22.70
2018-06-24T15:46:36.363Z,22.50
2018-06-24T15:49:05.072Z,22.50
2018-06-24T15:51:33.709Z,22.50
2018-06-24T15:54:02.293Z,22.70
2018-06-24T15:56:30.912Z,23.10
2018-06-24T15:58:59.500Z,23.20
2018-06-24T16:01:28.152Z,23.00
2018-06-24T16:03:56.760Z,23.00
2018-06-24T16:06:25.406Z,23.20
2018-06-24T16:08:54.585Z,23.20
2018-06-24T16:11:23.318Z,23.20
2018-06-24T16:16:20.220Z,22.90
2018-06-24T16:18:48.968Z,23.00
2018-06-24T16:21:18.026Z,23.30
2018-06-24T16:23:46.309Z,23.10
2018-06-24T16:26:14.937Z,23.40
2018-06-24T16:28:43.638Z,23.50
2018-06-24T16:31:12.341Z,23.60
2018-06-24T16:33:40.982Z,23.70
2018-06-24T16:36:09.611Z,23.00
2018-06-24T16:38:38.543Z,22.80
2018-06-24T16:41:07.157Z,22.50
2018-06-24T16:43:35.787Z,22.40
2018-06-24T16:46:04.449Z,22.30
2018-06-24T16:48:33.223Z,22.30
2018-06-24T16:51:01.957Z,22.20
2018-06-24T16:53:30.653Z,22.00
2018-06-24T16:55:59.472Z,21.80
2018-06-24T16:58:28.161Z,21.90
2018-06-24T17:00:56.873Z,21.80
2018-06-24T17:03:25.528Z,21.70
2018-06-24T17:05:54.094Z,21.40
2018-06-24T17:08:22.700Z,21.40
2018-06-24T17:10:51.488Z,21.50
2018-06-24T17:13:20.114Z,21.30
2018-06-24T17:15:48.724Z,21.20
2018-06-24T17:18:17.300Z,21.10
2018-06-24T17:20:45.908Z,21.10
2018-06-24T17:23:14.520Z,20.90
2018-06-24T17:25:43.188Z,21.00
2018-06-24T17:28:11.885Z,21.00
2018-06-24T17:30:40.617Z,21.00
2018-06-24T17:33:09.313Z,20.90
2018-06-24T17:35:38.010Z,20.80
2018-06-24T17:38:06.676Z,20.70
2018-06-24T17:40:35.346Z,20.40
2018-06-24T17:43:03.985Z,20.50
2018-06-24T17:45:32.634Z,20.40
2018-06-24T17:48:01.242Z,20.40
2018-06-24T17:50:29.921Z,20.30
2018-06-24T17:52:58.605Z,20.20
2018-06-24T17:55:27.193Z,20.10
2018-06-24T17:57:55.761Z,20.00
2018-06-24T18:00:24.381Z,20.00
2018-06-24T18:02:59.538Z,20.10
2018-06-24T18:05:28.299Z,20.00
2018-06-24T18:07:57.029Z,20.00
2018-06-24T18:10:25.778Z,19.90
2018-06-24T18:12:54.473Z,19.90
2018-06-24T18:15:23.256Z,19.90
2018-06-24T18:17:51.952Z,19.90
2018-06-24T18:20:20.680Z,19.80
2018-06-24T18:22:49.381Z,19.70
2018-06-24T18:25:18.170Z,19.70
2018-06-24T18:27:46.916Z,19.60
2018-06-24T18:30:15.663Z,19.60
2018-06-24T18:32:48.270Z,19.50
2018-06-24T18:35:13.172Z,19.50
2018-06-24T18:37:42.090Z,19.40
2018-06-24T18:40:10.801Z,19.50
2018-06-24T18:42:39.559Z,19.40
2018-06-24T18:45:08.348Z,19.30
2018-06-24T18:47:37.145Z,19.20
2018-06-24T18:50:05.959Z,19.10
2018-06-24T18:52:34.652Z,19.10
2018-06-24T18:55:03.475Z,18.90
2018-06-24T19:00:00.489Z,18.70
2018-06-24T19:02:29.203Z,18.60
2018-06-24T19:04:58.016Z,18.50
2018-06-24T19:07:26.680Z,18.30
2018-06-24T19:09:55.348Z,18.20
2018-06-24T19:12:24.062Z,18.10
2018-06-24T19:17:21.112Z,17.90
2018-06-24T19:19:49.789Z,17.90
2018-06-24T19:22:18.474Z,17.70
2018-06-24T19:24:47.149Z,17.60
2018-06-24T19:27:15.825Z,17.50
2018-06-24T19:29:44.473Z,17.30
2018-06-24T19:34:41.752Z,17.30
2018-06-24T19:37:10.508Z,17.10
2018-06-24T19:39:39.346Z,17.00
2018-06-24T19:42:08.127Z,16.90
2018-06-24T19:44:36.838Z,16.90
2018-06-24T19:47:05.514Z,17.00
2018-06-24T19:49:34.304Z,16.80
2018-06-24T19:52:03.119Z,16.70
2018-06-24T19:54:32.216Z,16.60
2018-06-24T19:57:00.959Z,16.60
2018-06-24T19:59:29.728Z,16.50
2018-06-24T20:01:58.524Z,16.50
2018-06-24T20:04:27.274Z,16.50
2018-06-24T20:06:55.970Z,16.40
2018-06-24T20:09:24.713Z,16.40
2018-06-24T20:11:53.377Z,16.30
2018-06-24T20:14:22.124Z,16.30
2018-06-24T20:16:50.852Z,16.30
2018-06-24T20:19:19.546Z,16.20
2018-06-24T20:21:48.197Z,16.20
2018-06-24T20:24:17.645Z,16.10
2018-06-24T20:26:46.281Z,16.00
2018-06-24T20:29:14.899Z,16.10
2018-06-24T20:31:43.488Z,16.10
2018-06-24T20:34:12.131Z,16.10
2018-06-24T20:36:40.729Z,16.00
2018-06-24T20:39:09.832Z,16.00
2018-06-24T20:41:38.544Z,16.00
2018-06-24T20:44:07.166Z,16.00
2018-06-24T20:46:35.824Z,16.00
2018-06-24T20:49:04.567Z,15.90
2018-06-24T20:51:33.150Z,15.90
2018-06-24T20:54:01.793Z,15.80
2018-06-24T20:56:30.448Z,15.70
2018-06-24T20:58:59.491Z,15.70
2018-06-24T21:01:28.268Z,15.60
2018-06-24T21:03:56.916Z,15.60
2018-06-24T21:08:53.837Z,15.40
2018-06-24T21:11:22.519Z,15.30
2018-06-24T21:13:51.292Z,15.20
2018-06-24T21:16:20.005Z,15.10
2018-06-24T21:18:48.657Z,15.10
2018-06-24T21:21:17.635Z,15.10
2018-06-24T21:23:46.395Z,15.20
2018-06-24T21:26:15.016Z,15.10
2018-06-24T21:28:43.595Z,15.00
2018-06-24T21:31:12.164Z,15.10
2018-06-24T21:33:40.704Z,15.10
2018-06-24T21:36:09.337Z,15.10
2018-06-24T21:38:37.957Z,15.10
2018-06-24T21:41:06.574Z,15.00
2018-06-24T21:43:35.163Z,15.00
2018-06-24T21:46:03.873Z,15.10
2018-06-24T21:48:32.461Z,15.20
2018-06-24T21:51:01.115Z,15.20
2018-06-24T21:53:29.709Z,15.10
2018-06-24T21:58:26.557Z,15.00
2018-06-24T22:00:55.169Z,14.90
2018-06-24T22:03:23.737Z,14.90
2018-06-24T22:05:52.346Z,14.90
2018-06-24T22:08:20.958Z,14.80
2018-06-24T22:10:49.525Z,14.90
2018-06-24T22:13:18.201Z,14.90
2018-06-24T22:15:46.866Z,14.90
2018-06-24T22:18:15.497Z,14.80
2018-06-24T22:20:44.278Z,14.70
2018-06-24T22:23:12.921Z,14.80
2018-06-24T22:25:41.567Z,14.80
2018-06-24T22:28:10.282Z,14.80
2018-06-24T22:30:38.870Z,14.70
2018-06-24T22:33:07.655Z,14.70
2018-06-24T22:35:36.229Z,14.70
2018-06-24T22:38:04.897Z,14.60
2018-06-24T22:40:33.573Z,14.80
2018-06-24T22:43:02.229Z,14.80
2018-06-24T22:45:30.808Z,14.80
2018-06-24T22:47:59.377Z,14.70
2018-06-24T22:50:27.956Z,14.80
2018-06-24T22:52:56.568Z,14.80
2018-06-24T22:55:25.148Z,14.70
2018-06-24T22:57:53.823Z,14.60
2018-06-24T23:00:22.517Z,14.60
2018-06-24T23:02:51.123Z,14.70
2018-06-24T23:05:19.694Z,14.70
2018-06-24T23:07:48.368Z,14.80
2018-06-24T23:10:17.062Z,14.90
2018-06-24T23:12:45.677Z,14.90
2018-06-24T23:15:14.277Z,14.90
2018-06-24T23:17:42.922Z,15.00
2018-06-24T23:20:11.559Z,15.00
2018-06-24T23:22:40.200Z,15.00
2018-06-24T23:25:08.835Z,14.90
2018-06-24T23:27:38.446Z,14.90
2018-06-24T23:30:07.573Z,14.80
2018-06-24T23:32:37.060Z,14.80
2018-06-24T23:35:05.797Z,14.70
2018-06-24T23:37:34.426Z,14.80
2018-06-24T23:40:03.155Z,14.90
2018-06-24T23:42:31.734Z,14.90
2018-06-24T23:45:00.341Z,14.80
2018-06-24T23:47:28.948Z,14.80
2018-06-24T23:49:57.584Z,14.90
2018-06-24T23:52:26.154Z,14.80
2018-06-24T23:54:55.037Z,14.80
2018-06-24T23:59:51.944Z,14.80
